X  SluitMETAR luchtvaart weer gegevens      EBBR Brussels

Temperatuur

23°C Temperatuur

3°C Dauwpunt

27% Vochtigheid



Wind

16 KM/U

10 MPH

 4 M/S

 9 KTS



110°
Oost Zuid
Oost
Huidig weer

Helder Helder
Luchtdruk 1022.92 (hPa) - 30.21 (in)
Zicht 6.2 (mi) - 10 (km)
Vliegveld
Vliegveld code EBBR

Locatie Brussels 14 (km)

Metar:
EBBR 301120Z 11009G23KT 060V140 CAVOK 23/03 Q1023 NOSIG

Tijd: 30-05-2020 13:20